»·PEaware :: N16066 KSNA-KCRQ

N16066 :: KSNA-KCRQ

FLIGHT INFORMATION

Flight Status: Arrived
Operator: Privately registered:
United States
More flights under this callsign
Pilot: Rafael S. (31867)
Aircraft: AÉROSPATIALE TABAGO TB10C/200
(TOBA)
More flights by this aircraft type
Origin: KSNA John Wayne-Orange Co
United States
Destination: KCRQ McClellan-Palomar
United States
More flights between these airports :: More routes between these airports
Route: V23 OCN
File this flight plan on PilotEdge
Remarks:
Altitude:
(Current/Filed)
5,000ft
Speed:
(Current/Filed)
125kts
Departed: 02-Oct-22 05:49 PM
Arrived: 02-Oct-22 06:32 PM
Distance/Time
Traveled:
44nm/0:43
Distance/Time
To Go:
Arrived

Flight Plot

Page will automatically refresh every two minutes.


Map Options




Map Legend


Flown Route
Filed Route
Departure Airport
Arrival Airport
Navaid (VOR, NDB)
Fix

Horizontal Profiles

Position Reports

Time Latitude Longitude Heading Altitude Ground
Speed
02-Oct-22 17:27 33.676081 -117.870908 219 59ft 0kts
02-Oct-22 17:28 33.676081 -117.870908 219 59ft 0kts
02-Oct-22 17:29 33.676081 -117.870908 219 59ft 0kts
02-Oct-22 17:30 33.676081 -117.870908 219 59ft 0kts
02-Oct-22 17:31 33.676081 -117.870908 219 59ft 0kts
02-Oct-22 17:32 33.676081 -117.870908 219 59ft 0kts
02-Oct-22 17:33 33.676081 -117.870908 219 59ft 0kts
02-Oct-22 17:34 33.676081 -117.870908 219 59ft 0kts
02-Oct-22 17:35 33.676081 -117.870908 219 59ft 0kts
02-Oct-22 17:36 33.676081 -117.870908 219 59ft 0kts
02-Oct-22 17:37 33.676081 -117.870908 219 59ft 0kts
02-Oct-22 17:38 33.676081 -117.870908 219 59ft 0kts
02-Oct-22 17:39 33.676081 -117.870908 219 59ft 0kts
02-Oct-22 17:40 33.676081 -117.870908 219 59ft 0kts
02-Oct-22 17:41 33.676081 -117.870908 219 59ft 0kts
02-Oct-22 17:42 33.676081 -117.870908 219 59ft 0kts
02-Oct-22 17:43 33.676081 -117.870908 219 59ft 0kts
02-Oct-22 17:44 33.676839 -117.869636 24 59ft 11kts
02-Oct-22 17:45 33.680598 -117.867401 27 59ft 14kts
02-Oct-22 17:46 33.681246 -117.866529 106 59ft 0kts
02-Oct-22 17:47 33.681246 -117.866529 106 59ft 0kts
02-Oct-22 17:48 33.679094 -117.866646 208 59ft 57kts
02-Oct-22 17:49 33.658240 -117.879990 205 822ft 95kts
02-Oct-22 17:50 33.632680 -117.885218 187 1584ft 95kts
02-Oct-22 17:51 33.606476 -117.889157 187 2221ft 95kts
02-Oct-22 17:52 33.580122 -117.893608 185 2835ft 97kts
02-Oct-22 17:53 33.553516 -117.897276 186 3437ft 97kts
02-Oct-22 17:54 33.527578 -117.895533 134 3996ft 97kts
02-Oct-22 17:55 33.516089 -117.866220 114 4532ft 97kts
02-Oct-22 17:56 33.503976 -117.836544 115 4964ft 103kts
02-Oct-22 17:57 33.490938 -117.803208 114 5091ft 120kts
02-Oct-22 17:58 33.478306 -117.765342 114 5033ft 122kts
02-Oct-22 17:59 33.464903 -117.728017 116 5013ft 122kts
02-Oct-22 18:00 33.451630 -117.690782 110 5011ft 121kts
02-Oct-22 18:01 33.437853 -117.653650 115 5002ft 122kts
02-Oct-22 18:02 33.418787 -117.620334 137 4959ft 122kts
02-Oct-22 18:03 33.392975 -117.594210 137 4989ft 120kts
02-Oct-22 18:04 33.369464 -117.565597 132 5016ft 121kts
02-Oct-22 18:05 33.344541 -117.538635 133 5046ft 121kts
02-Oct-22 18:06 33.318908 -117.512445 133 5070ft 120kts
02-Oct-22 18:07 33.296296 -117.482629 133 5075ft 121kts
02-Oct-22 18:08 33.272862 -117.453483 137 5074ft 122kts
02-Oct-22 18:09 33.249886 -117.424136 106 5057ft 122kts
02-Oct-22 18:10 33.247705 -117.383812 90 5066ft 120kts
02-Oct-22 18:11 33.246392 -117.343393 99 5050ft 123kts
02-Oct-22 18:12 33.242961 -117.303342 92 5100ft 120kts
02-Oct-22 18:13 33.243355 -117.263047 91 5133ft 121kts
02-Oct-22 18:14 33.242674 -117.222092 92 5049ft 123kts
02-Oct-22 18:15 33.241811 -117.181772 90 5089ft 120kts
02-Oct-22 18:16 33.241538 -117.141565 87 5117ft 121kts
02-Oct-22 18:17 33.238614 -117.101309 94 5096ft 123kts
02-Oct-22 18:18 33.237025 -117.060518 91 5076ft 122kts
02-Oct-22 18:19 33.236301 -117.019842 89 5055ft 122kts
02-Oct-22 18:20 33.228492 -116.981913 147 5065ft 121kts
02-Oct-22 18:21 33.201809 -116.999893 221 4405ft 120kts
02-Oct-22 18:22 33.177479 -117.026316 221 4160ft 112kts
02-Oct-22 18:23 33.163378 -117.057663 253 4346ft 93kts
02-Oct-22 18:24 33.158400 -117.089866 261 3821ft 101kts
02-Oct-22 18:25 33.153179 -117.123095 261 3011ft 100kts
02-Oct-22 18:26 33.148238 -117.155129 257 2435ft 97kts
02-Oct-22 18:27 33.143149 -117.186529 256 1872ft 93kts
02-Oct-22 18:28 33.138047 -117.217173 257 1345ft 94kts
02-Oct-22 18:29 33.132973 -117.247930 261 804ft 95kts
02-Oct-22 18:30 33.129021 -117.275314 258 331ft 60kts
02-Oct-22 18:31 33.127066 -117.282445 109 324ft 0kts
02-Oct-22 18:32 33.126853 -117.281654 82 321ft 0kts
02-Oct-22 18:33 33.126853 -117.281654 82 321ft 0kts

Navigation Log

Ident Type
Flight plan parsing failed, navigation log unavailable